sensor_id;sensor_type;location;lat;lon;timestamp;P1;durP1;ratioP1;P2;durP2;ratioP2
37097;SDS011;63608;49.572;12.348;2023-08-12T00:00:34;4.40;;;3.00;;
37097;SDS011;63608;49.572;12.348;2023-08-12T00:02:36;5.90;;;3.33;;
37097;SDS011;63608;49.572;12.348;2023-08-12T00:04:38;5.63;;;3.07;;
37097;SDS011;63608;49.572;12.348;2023-08-12T00:06:41;12.00;;;3.70;;
37097;SDS011;63608;49.572;12.348;2023-08-12T00:08:44;6.13;;;3.37;;
37097;SDS011;63608;49.572;12.348;2023-08-12T00:10:52;5.00;;;3.10;;
37097;SDS011;63608;49.572;12.348;2023-08-12T00:12:54;4.30;;;3.13;;
37097;SDS011;63608;49.572;12.348;2023-08-12T00:14:57;6.37;;;3.33;;
37097;SDS011;63608;49.572;12.348;2023-08-12T00:16:59;3.33;;;3.03;;
37097;SDS011;63608;49.572;12.348;2023-08-12T00:19:04;3.80;;;2.97;;
37097;SDS011;63608;49.572;12.348;2023-08-12T00:21:08;5.47;;;3.33;;
37097;SDS011;63608;49.572;12.348;2023-08-12T00:23:11;5.20;;;3.27;;
37097;SDS011;63608;49.572;12.348;2023-08-12T00:25:13;6.83;;;3.57;;
37097;SDS011;63608;49.572;12.348;2023-08-12T00:27:18;3.73;;;2.80;;
37097;SDS011;63608;49.572;12.348;2023-08-12T00:29:20;5.07;;;3.20;;
37097;SDS011;63608;49.572;12.348;2023-08-12T00:31:23;5.30;;;2.87;;
37097;SDS011;63608;49.572;12.348;2023-08-12T00:33:24;4.10;;;3.00;;
37097;SDS011;63608;49.572;12.348;2023-08-12T00:35:26;5.80;;;3.50;;
37097;SDS011;63608;49.572;12.348;2023-08-12T00:37:28;4.47;;;3.30;;
37097;SDS011;63608;49.572;12.348;2023-08-12T00:39:30;5.67;;;3.57;;
37097;SDS011;63608;49.572;12.348;2023-08-12T00:41:39;4.13;;;3.03;;
37097;SDS011;63608;49.572;12.348;2023-08-12T00:43:46;5.97;;;3.83;;
37097;SDS011;63608;49.572;12.348;2023-08-12T00:45:48;4.67;;;3.73;;
37097;SDS011;63608;49.572;12.348;2023-08-12T00:47:51;3.70;;;2.73;;
37097;SDS011;63608;49.572;12.348;2023-08-12T00:49:58;3.57;;;2.70;;
37097;SDS011;63608;49.572;12.348;2023-08-12T00:52:00;3.73;;;2.73;;
37097;SDS011;63608;49.572;12.348;2023-08-12T00:54:04;5.00;;;3.00;;
37097;SDS011;63608;49.572;12.348;2023-08-12T00:56:07;5.70;;;3.53;;
37097;SDS011;63608;49.572;12.348;2023-08-12T00:58:10;5.37;;;3.20;;
37097;SDS011;63608;49.572;12.348;2023-08-12T01:00:15;5.60;;;3.20;;
37097;SDS011;63608;49.572;12.348;2023-08-12T01:02:23;4.20;;;2.60;;
37097;SDS011;63608;49.572;12.348;2023-08-12T01:04:27;3.63;;;3.03;;
37097;SDS011;63608;49.572;12.348;2023-08-12T01:06:29;3.90;;;3.10;;
37097;SDS011;63608;49.572;12.348;2023-08-12T01:08:31;4.07;;;2.77;;
37097;SDS011;63608;49.572;12.348;2023-08-12T01:10:34;3.47;;;2.70;;
37097;SDS011;63608;49.572;12.348;2023-08-12T01:12:40;3.30;;;3.00;;
37097;SDS011;63608;49.572;12.348;2023-08-12T01:14:48;3.80;;;2.83;;
37097;SDS011;63608;49.572;12.348;2023-08-12T01:17:02;3.30;;;2.67;;
37097;SDS011;63608;49.572;12.348;2023-08-12T01:19:06;13.63;;;2.83;;
37097;SDS011;63608;49.572;12.348;2023-08-12T01:21:15;5.87;;;3.33;;
37097;SDS011;63608;49.572;12.348;2023-08-12T01:23:22;4.90;;;2.97;;
37097;SDS011;63608;49.572;12.348;2023-08-12T01:25:24;4.17;;;3.10;;
37097;SDS011;63608;49.572;12.348;2023-08-12T01:27:25;4.27;;;2.90;;
37097;SDS011;63608;49.572;12.348;2023-08-12T01:29:27;4.40;;;2.83;;
37097;SDS011;63608;49.572;12.348;2023-08-12T01:31:32;2.53;;;2.20;;
37097;SDS011;63608;49.572;12.348;2023-08-12T01:33:41;4.67;;;3.27;;
37097;SDS011;63608;49.572;12.348;2023-08-12T01:35:46;3.23;;;2.37;;
37097;SDS011;63608;49.572;12.348;2023-08-12T01:37:56;3.93;;;3.00;;
37097;SDS011;63608;49.572;12.348;2023-08-12T01:40:01;4.50;;;2.83;;
37097;SDS011;63608;49.572;12.348;2023-08-12T01:42:05;4.03;;;2.60;;
37097;SDS011;63608;49.572;12.348;2023-08-12T01:44:08;5.00;;;3.30;;
37097;SDS011;63608;49.572;12.348;2023-08-12T01:46:13;5.40;;;2.93;;
37097;SDS011;63608;49.572;12.348;2023-08-12T01:48:15;4.60;;;3.13;;
37097;SDS011;63608;49.572;12.348;2023-08-12T01:50:23;7.37;;;3.30;;
37097;SDS011;63608;49.572;12.348;2023-08-12T01:52:24;6.43;;;3.07;;
37097;SDS011;63608;49.572;12.348;2023-08-12T01:54:27;3.30;;;3.00;;
37097;SDS011;63608;49.572;12.348;2023-08-12T01:56:36;5.63;;;3.33;;
37097;SDS011;63608;49.572;12.348;2023-08-12T01:58:39;8.70;;;3.93;;
37097;SDS011;63608;49.572;12.348;2023-08-12T02:00:43;8.63;;;3.43;;
37097;SDS011;63608;49.572;12.348;2023-08-12T02:02:46;6.30;;;3.90;;
37097;SDS011;63608;49.572;12.348;2023-08-12T02:04:49;10.63;;;4.17;;
37097;SDS011;63608;49.572;12.348;2023-08-12T02:06:54;6.77;;;3.77;;
37097;SDS011;63608;49.572;12.348;2023-08-12T02:08:56;5.30;;;3.47;;
37097;SDS011;63608;49.572;12.348;2023-08-12T02:11:13;6.77;;;4.00;;
37097;SDS011;63608;49.572;12.348;2023-08-12T02:13:17;5.00;;;4.13;;
37097;SDS011;63608;49.572;12.348;2023-08-12T02:15:20;6.33;;;3.33;;
37097;SDS011;63608;49.572;12.348;2023-08-12T02:17:22;5.10;;;3.77;;
37097;SDS011;63608;49.572;12.348;2023-08-12T02:19:24;8.50;;;4.03;;
37097;SDS011;63608;49.572;12.348;2023-08-12T02:21:27;7.87;;;3.53;;
37097;SDS011;63608;49.572;12.348;2023-08-12T02:23:28;6.07;;;3.80;;
37097;SDS011;63608;49.572;12.348;2023-08-12T02:25:30;6.93;;;4.13;;
37097;SDS011;63608;49.572;12.348;2023-08-12T02:27:32;8.60;;;4.20;;
37097;SDS011;63608;49.572;12.348;2023-08-12T02:29:38;5.80;;;3.53;;
37097;SDS011;63608;49.572;12.348;2023-08-12T02:31:41;6.73;;;3.60;;
37097;SDS011;63608;49.572;12.348;2023-08-12T02:33:50;5.33;;;3.10;;
37097;SDS011;63608;49.572;12.348;2023-08-12T02:35:52;6.07;;;3.30;;
37097;SDS011;63608;49.572;12.348;2023-08-12T02:37:56;4.30;;;2.97;;
37097;SDS011;63608;49.572;12.348;2023-08-12T02:39:58;6.93;;;3.20;;
37097;SDS011;63608;49.572;12.348;2023-08-12T02:42:00;6.70;;;3.70;;
37097;SDS011;63608;49.572;12.348;2023-08-12T02:44:03;2.70;;;2.50;;
37097;SDS011;63608;49.572;12.348;2023-08-12T02:46:07;4.87;;;2.87;;
37097;SDS011;63608;49.572;12.348;2023-08-12T02:48:11;3.50;;;3.20;;
37097;SDS011;63608;49.572;12.348;2023-08-12T02:50:17;3.07;;;2.40;;
37097;SDS011;63608;49.572;12.348;2023-08-12T02:52:19;3.10;;;2.27;;
37097;SDS011;63608;49.572;12.348;2023-08-12T02:54:24;4.23;;;3.23;;
37097;SDS011;63608;49.572;12.348;2023-08-12T02:56:26;2.60;;;2.30;;
37097;SDS011;63608;49.572;12.348;2023-08-12T02:58:28;5.97;;;3.53;;
37097;SDS011;63608;49.572;12.348;2023-08-12T03:00:40;4.00;;;2.80;;
37097;SDS011;63608;49.572;12.348;2023-08-12T03:02:48;6.00;;;2.97;;
37097;SDS011;63608;49.572;12.348;2023-08-12T03:04:52;2.53;;;2.20;;
37097;SDS011;63608;49.572;12.348;2023-08-12T03:06:55;4.93;;;3.00;;
37097;SDS011;63608;49.572;12.348;2023-08-12T03:08:57;10.90;;;3.00;;
37097;SDS011;63608;49.572;12.348;2023-08-12T03:11:01;4.00;;;3.10;;
37097;SDS011;63608;49.572;12.348;2023-08-12T03:13:03;7.23;;;2.90;;
37097;SDS011;63608;49.572;12.348;2023-08-12T03:15:06;5.53;;;2.67;;
37097;SDS011;63608;49.572;12.348;2023-08-12T03:17:09;3.47;;;3.10;;
37097;SDS011;63608;49.572;12.348;2023-08-12T03:19:12;5.27;;;2.90;;
37097;SDS011;63608;49.572;12.348;2023-08-12T03:21:16;4.97;;;2.80;;
37097;SDS011;63608;49.572;12.348;2023-08-12T03:23:19;3.83;;;3.00;;
37097;SDS011;63608;49.572;12.348;2023-08-12T03:25:22;4.40;;;2.40;;
37097;SDS011;63608;49.572;12.348;2023-08-12T03:27:24;3.40;;;2.50;;
37097;SDS011;63608;49.572;12.348;2023-08-12T03:29:26;3.10;;;2.80;;
37097;SDS011;63608;49.572;12.348;2023-08-12T03:31:29;3.40;;;2.70;;
37097;SDS011;63608;49.572;12.348;2023-08-12T03:33:31;3.63;;;2.90;;
37097;SDS011;63608;49.572;12.348;2023-08-12T03:35:37;3.57;;;2.93;;
37097;SDS011;63608;49.572;12.348;2023-08-12T03:37:40;7.53;;;3.10;;
37097;SDS011;63608;49.572;12.348;2023-08-12T03:39:43;5.33;;;3.43;;
37097;SDS011;63608;49.572;12.348;2023-08-12T03:41:51;3.10;;;2.80;;
37097;SDS011;63608;49.572;12.348;2023-08-12T03:43:58;8.93;;;3.13;;
37097;SDS011;63608;49.572;12.348;2023-08-12T03:46:01;2.60;;;2.40;;
37097;SDS011;63608;49.572;12.348;2023-08-12T03:48:04;4.30;;;2.93;;
37097;SDS011;63608;49.572;12.348;2023-08-12T03:50:07;5.73;;;3.00;;
37097;SDS011;63608;49.572;12.348;2023-08-12T03:52:11;3.40;;;2.60;;
37097;SDS011;63608;49.572;12.348;2023-08-12T03:54:15;4.67;;;2.53;;
37097;SDS011;63608;49.572;12.348;2023-08-12T03:56:17;6.30;;;2.63;;
37097;SDS011;63608;49.572;12.348;2023-08-12T03:58:19;3.33;;;2.70;;
37097;SDS011;63608;49.572;12.348;2023-08-12T04:00:20;4.20;;;2.70;;
37097;SDS011;63608;49.572;12.348;2023-08-12T04:02:26;3.30;;;2.60;;
37097;SDS011;63608;49.572;12.348;2023-08-12T04:04:28;5.73;;;3.00;;
37097;SDS011;63608;49.572;12.348;2023-08-12T04:06:31;3.40;;;2.60;;
37097;SDS011;63608;49.572;12.348;2023-08-12T04:08:36;5.00;;;2.73;;
37097;SDS011;63608;49.572;12.348;2023-08-12T04:10:39;4.10;;;2.90;;
37097;SDS011;63608;49.572;12.348;2023-08-12T04:12:43;5.60;;;3.40;;
37097;SDS011;63608;49.572;12.348;2023-08-12T04:14:48;5.00;;;3.07;;
37097;SDS011;63608;49.572;12.348;2023-08-12T04:16:51;4.03;;;2.57;;
37097;SDS011;63608;49.572;12.348;2023-08-12T04:18:53;4.30;;;2.50;;
37097;SDS011;63608;49.572;12.348;2023-08-12T04:20:56;3.87;;;2.93;;
37097;SDS011;63608;49.572;12.348;2023-08-12T04:22:59;4.90;;;2.63;;
37097;SDS011;63608;49.572;12.348;2023-08-12T04:25:02;4.80;;;2.77;;
37097;SDS011;63608;49.572;12.348;2023-08-12T04:27:09;4.17;;;3.13;;
37097;SDS011;63608;49.572;12.348;2023-08-12T04:29:16;4.50;;;2.60;;
37097;SDS011;63608;49.572;12.348;2023-08-12T04:31:19;4.33;;;2.30;;
37097;SDS011;63608;49.572;12.348;2023-08-12T04:33:22;4.80;;;2.90;;
37097;SDS011;63608;49.572;12.348;2023-08-12T04:35:25;4.10;;;2.70;;
37097;SDS011;63608;49.572;12.348;2023-08-12T04:37:27;3.50;;;2.57;;
37097;SDS011;63608;49.572;12.348;2023-08-12T04:39:30;6.10;;;2.83;;
37097;SDS011;63608;49.572;12.348;2023-08-12T04:41:37;3.80;;;2.40;;
37097;SDS011;63608;49.572;12.348;2023-08-12T04:43:39;5.73;;;2.83;;
37097;SDS011;63608;49.572;12.348;2023-08-12T04:45:44;2.50;;;2.30;;
37097;SDS011;63608;49.572;12.348;2023-08-12T04:47:47;3.43;;;2.80;;
37097;SDS011;63608;49.572;12.348;2023-08-12T04:49:49;3.10;;;2.20;;
37097;SDS011;63608;49.572;12.348;2023-08-12T04:51:51;3.83;;;3.23;;
37097;SDS011;63608;49.572;12.348;2023-08-12T04:53:57;5.40;;;3.23;;
37097;SDS011;63608;49.572;12.348;2023-08-12T04:56:01;3.83;;;2.70;;
37097;SDS011;63608;49.572;12.348;2023-08-12T04:58:04;3.93;;;2.60;;
37097;SDS011;63608;49.572;12.348;2023-08-12T05:00:06;4.00;;;2.93;;
37097;SDS011;63608;49.572;12.348;2023-08-12T05:02:08;2.63;;;2.33;;
37097;SDS011;63608;49.572;12.348;2023-08-12T05:04:11;5.33;;;3.13;;
37097;SDS011;63608;49.572;12.348;2023-08-12T05:06:13;3.27;;;2.60;;
37097;SDS011;63608;49.572;12.348;2023-08-12T05:08:19;2.87;;;2.57;;
37097;SDS011;63608;49.572;12.348;2023-08-12T05:10:21;3.07;;;2.80;;
37097;SDS011;63608;49.572;12.348;2023-08-12T05:12:23;2.60;;;2.40;;
37097;SDS011;63608;49.572;12.348;2023-08-12T05:14:30;3.30;;;2.70;;
37097;SDS011;63608;49.572;12.348;2023-08-12T05:16:32;5.70;;;2.30;;
37097;SDS011;63608;49.572;12.348;2023-08-12T05:18:34;3.30;;;2.30;;
37097;SDS011;63608;49.572;12.348;2023-08-12T05:20:37;5.20;;;3.20;;
37097;SDS011;63608;49.572;12.348;2023-08-12T05:22:42;3.03;;;2.50;;
37097;SDS011;63608;49.572;12.348;2023-08-12T05:24:45;3.40;;;2.90;;
37097;SDS011;63608;49.572;12.348;2023-08-12T05:26:47;3.93;;;2.50;;
37097;SDS011;63608;49.572;12.348;2023-08-12T05:28:49;4.57;;;2.67;;
37097;SDS011;63608;49.572;12.348;2023-08-12T05:30:57;4.50;;;2.97;;
37097;SDS011;63608;49.572;12.348;2023-08-12T05:32:59;5.40;;;3.00;;
37097;SDS011;63608;49.572;12.348;2023-08-12T05:35:02;3.43;;;2.47;;
37097;SDS011;63608;49.572;12.348;2023-08-12T05:37:05;5.20;;;3.30;;
37097;SDS011;63608;49.572;12.348;2023-08-12T05:39:08;4.37;;;3.17;;
37097;SDS011;63608;49.572;12.348;2023-08-12T05:41:11;4.03;;;2.53;;
37097;SDS011;63608;49.572;12.348;2023-08-12T05:43:13;5.10;;;3.00;;
37097;SDS011;63608;49.572;12.348;2023-08-12T05:45:20;3.53;;;3.17;;
37097;SDS011;63608;49.572;12.348;2023-08-12T05:47:26;3.40;;;2.70;;
37097;SDS011;63608;49.572;12.348;2023-08-12T05:49:29;4.20;;;2.50;;
37097;SDS011;63608;49.572;12.348;2023-08-12T05:51:31;2.70;;;2.50;;
37097;SDS011;63608;49.572;12.348;2023-08-12T05:53:34;4.33;;;2.80;;
37097;SDS011;63608;49.572;12.348;2023-08-12T05:55:39;3.03;;;2.57;;
37097;SDS011;63608;49.572;12.348;2023-08-12T05:57:42;3.77;;;2.70;;
37097;SDS011;63608;49.572;12.348;2023-08-12T05:59:44;5.40;;;3.00;;
37097;SDS011;63608;49.572;12.348;2023-08-12T06:01:46;6.03;;;2.87;;
37097;SDS011;63608;49.572;12.348;2023-08-12T06:03:50;2.70;;;2.50;;
37097;SDS011;63608;49.572;12.348;2023-08-12T06:05:52;3.53;;;2.27;;
37097;SDS011;63608;49.572;12.348;2023-08-12T06:07:54;6.43;;;2.53;;
37097;SDS011;63608;49.572;12.348;2023-08-12T06:09:57;3.83;;;2.60;;
37097;SDS011;63608;49.572;12.348;2023-08-12T06:11:59;4.60;;;2.67;;
37097;SDS011;63608;49.572;12.348;2023-08-12T06:14:01;5.80;;;2.67;;
37097;SDS011;63608;49.572;12.348;2023-08-12T06:16:03;4.60;;;2.67;;
37097;SDS011;63608;49.572;12.348;2023-08-12T06:18:06;3.23;;;2.70;;
37097;SDS011;63608;49.572;12.348;2023-08-12T06:20:12;3.70;;;2.70;;
37097;SDS011;63608;49.572;12.348;2023-08-12T06:22:16;6.20;;;2.93;;
37097;SDS011;63608;49.572;12.348;2023-08-12T06:24:18;3.10;;;2.30;;
37097;SDS011;63608;49.572;12.348;2023-08-12T06:26:20;7.97;;;3.70;;
37097;SDS011;63608;49.572;12.348;2023-08-12T06:28:22;3.73;;;2.90;;
37097;SDS011;63608;49.572;12.348;2023-08-12T06:30:25;4.93;;;2.73;;
37097;SDS011;63608;49.572;12.348;2023-08-12T06:32:27;4.13;;;2.67;;
37097;SDS011;63608;49.572;12.348;2023-08-12T06:34:30;3.70;;;2.87;;
37097;SDS011;63608;49.572;12.348;2023-08-12T06:36:37;5.40;;;3.40;;
37097;SDS011;63608;49.572;12.348;2023-08-12T06:38:41;4.60;;;2.90;;
37097;SDS011;63608;49.572;12.348;2023-08-12T06:40:45;5.17;;;3.10;;
37097;SDS011;63608;49.572;12.348;2023-08-12T06:42:52;2.90;;;2.60;;
37097;SDS011;63608;49.572;12.348;2023-08-12T06:44:56;2.77;;;2.47;;
37097;SDS011;63608;49.572;12.348;2023-08-12T06:46:59;4.90;;;2.90;;
37097;SDS011;63608;49.572;12.348;2023-08-12T06:49:03;4.60;;;3.23;;
37097;SDS011;63608;49.572;12.348;2023-08-12T06:51:05;3.70;;;3.00;;
37097;SDS011;63608;49.572;12.348;2023-08-12T06:53:12;4.10;;;2.30;;
37097;SDS011;63608;49.572;12.348;2023-08-12T06:55:15;4.60;;;2.97;;
37097;SDS011;63608;49.572;12.348;2023-08-12T06:57:17;13.70;;;2.90;;
37097;SDS011;63608;49.572;12.348;2023-08-12T06:59:19;5.67;;;3.60;;
37097;SDS011;63608;49.572;12.348;2023-08-12T07:01:21;6.13;;;3.23;;
37097;SDS011;63608;49.572;12.348;2023-08-12T07:03:23;4.67;;;3.40;;
37097;SDS011;63608;49.572;12.348;2023-08-12T07:05:26;4.47;;;3.13;;
37097;SDS011;63608;49.572;12.348;2023-08-12T07:07:29;3.60;;;3.00;;
37097;SDS011;63608;49.572;12.348;2023-08-12T07:09:33;3.60;;;2.70;;
37097;SDS011;63608;49.572;12.348;2023-08-12T07:11:36;4.70;;;3.10;;
37097;SDS011;63608;49.572;12.348;2023-08-12T07:13:38;2.87;;;2.57;;
37097;SDS011;63608;49.572;12.348;2023-08-12T07:15:42;3.37;;;2.30;;
37097;SDS011;63608;49.572;12.348;2023-08-12T07:17:44;4.10;;;3.00;;
37097;SDS011;63608;49.572;12.348;2023-08-12T07:19:45;5.60;;;3.47;;
37097;SDS011;63608;49.572;12.348;2023-08-12T07:21:49;6.93;;;3.90;;
37097;SDS011;63608;49.572;12.348;2023-08-12T07:23:51;3.03;;;2.70;;
37097;SDS011;63608;49.572;12.348;2023-08-12T07:25:58;3.70;;;2.80;;
37097;SDS011;63608;49.572;12.348;2023-08-12T07:28:00;2.53;;;2.33;;
37097;SDS011;63608;49.572;12.348;2023-08-12T07:30:03;2.53;;;2.17;;
37097;SDS011;63608;49.572;12.348;2023-08-12T07:32:06;2.90;;;2.10;;
37097;SDS011;63608;49.572;12.348;2023-08-12T07:34:14;3.17;;;2.40;;
37097;SDS011;63608;49.572;12.348;2023-08-12T07:36:16;2.40;;;2.20;;
37097;SDS011;63608;49.572;12.348;2023-08-12T07:38:21;2.63;;;2.10;;
37097;SDS011;63608;49.572;12.348;2023-08-12T07:40:23;3.07;;;2.07;;
37097;SDS011;63608;49.572;12.348;2023-08-12T07:42:26;2.60;;;2.40;;
37097;SDS011;63608;49.572;12.348;2023-08-12T07:44:28;2.97;;;1.97;;
37097;SDS011;63608;49.572;12.348;2023-08-12T07:46:31;2.13;;;1.93;;
37097;SDS011;63608;49.572;12.348;2023-08-12T07:48:35;2.40;;;1.80;;
37097;SDS011;63608;49.572;12.348;2023-08-12T07:50:39;2.97;;;2.23;;
37097;SDS011;63608;49.572;12.348;2023-08-12T07:52:42;3.93;;;1.80;;
37097;SDS011;63608;49.572;12.348;2023-08-12T07:54:44;1.77;;;1.53;;
37097;SDS011;63608;49.572;12.348;2023-08-12T07:56:49;2.03;;;1.63;;
37097;SDS011;63608;49.572;12.348;2023-08-12T08:01:17;1.37;;;1.27;;
37097;SDS011;63608;49.572;12.348;2023-08-12T08:03:21;3.20;;;2.00;;
37097;SDS011;63608;49.572;12.348;2023-08-12T08:05:24;2.13;;;1.93;;
37097;SDS011;63608;49.572;12.348;2023-08-12T08:07:26;2.80;;;1.83;;
37097;SDS011;63608;49.572;12.348;2023-08-12T08:09:29;1.70;;;1.60;;
37097;SDS011;63608;49.572;12.348;2023-08-12T08:11:34;1.83;;;1.57;;
37097;SDS011;63608;49.572;12.348;2023-08-12T08:13:41;2.13;;;1.67;;
37097;SDS011;63608;49.572;12.348;2023-08-12T08:15:45;1.70;;;1.60;;
37097;SDS011;63608;49.572;12.348;2023-08-12T08:17:47;1.90;;;1.67;;
37097;SDS011;63608;49.572;12.348;2023-08-12T08:19:50;1.57;;;1.47;;
37097;SDS011;63608;49.572;12.348;2023-08-12T08:21:52;6.40;;;1.60;;
37097;SDS011;63608;49.572;12.348;2023-08-12T08:23:54;1.63;;;1.53;;
37097;SDS011;63608;49.572;12.348;2023-08-12T08:25:56;1.83;;;1.70;;
37097;SDS011;63608;49.572;12.348;2023-08-12T08:28:00;2.20;;;1.60;;
37097;SDS011;63608;49.572;12.348;2023-08-12T08:30:03;1.90;;;1.80;;
37097;SDS011;63608;49.572;12.348;2023-08-12T08:32:08;2.10;;;1.90;;
37097;SDS011;63608;49.572;12.348;2023-08-12T08:34:11;2.73;;;1.87;;
37097;SDS011;63608;49.572;12.348;2023-08-12T08:36:13;1.70;;;1.50;;
37097;SDS011;63608;49.572;12.348;2023-08-12T08:38:18;1.60;;;1.50;;
37097;SDS011;63608;49.572;12.348;2023-08-12T08:40:21;1.40;;;1.30;;
37097;SDS011;63608;49.572;12.348;2023-08-12T08:42:23;1.80;;;1.33;;
37097;SDS011;63608;49.572;12.348;2023-08-12T08:44:27;1.43;;;1.33;;
37097;SDS011;63608;49.572;12.348;2023-08-12T08:46:32;1.50;;;1.40;;
37097;SDS011;63608;49.572;12.348;2023-08-12T08:48:37;1.53;;;1.43;;
37097;SDS011;63608;49.572;12.348;2023-08-12T08:50:41;1.33;;;1.23;;
37097;SDS011;63608;49.572;12.348;2023-08-12T08:52:48;1.77;;;1.67;;
37097;SDS011;63608;49.572;12.348;2023-08-12T08:54:51;2.50;;;2.30;;
37097;SDS011;63608;49.572;12.348;2023-08-12T08:56:56;1.67;;;1.57;;
37097;SDS011;63608;49.572;12.348;2023-08-12T08:58:58;1.50;;;1.40;;
37097;SDS011;63608;49.572;12.348;2023-08-12T09:01:04;1.83;;;1.63;;
37097;SDS011;63608;49.572;12.348;2023-08-12T09:03:06;1.83;;;1.50;;
37097;SDS011;63608;49.572;12.348;2023-08-12T09:05:12;1.73;;;1.50;;
37097;SDS011;63608;49.572;12.348;2023-08-12T09:07:13;1.70;;;1.60;;
37097;SDS011;63608;49.572;12.348;2023-08-12T09:09:16;1.40;;;1.30;;
37097;SDS011;63608;49.572;12.348;2023-08-12T09:11:18;15.00;;;1.70;;
37097;SDS011;63608;49.572;12.348;2023-08-12T09:13:21;1.90;;;1.63;;
37097;SDS011;63608;49.572;12.348;2023-08-12T09:15:23;1.80;;;1.67;;
37097;SDS011;63608;49.572;12.348;2023-08-12T09:17:25;1.80;;;1.70;;
37097;SDS011;63608;49.572;12.348;2023-08-12T09:19:28;1.50;;;1.40;;
37097;SDS011;63608;49.572;12.348;2023-08-12T09:21:32;1.83;;;1.73;;
37097;SDS011;63608;49.572;12.348;2023-08-12T09:23:39;1.50;;;1.40;;
37097;SDS011;63608;49.572;12.348;2023-08-12T09:25:44;1.47;;;1.20;;
37097;SDS011;63608;49.572;12.348;2023-08-12T09:27:46;2.33;;;1.43;;
37097;SDS011;63608;49.572;12.348;2023-08-12T09:29:47;4.10;;;1.67;;
37097;SDS011;63608;49.572;12.348;2023-08-12T09:31:53;1.50;;;1.40;;
37097;SDS011;63608;49.572;12.348;2023-08-12T09:34:06;1.70;;;1.50;;
37097;SDS011;63608;49.572;12.348;2023-08-12T09:36:08;1.70;;;1.60;;
37097;SDS011;63608;49.572;12.348;2023-08-12T09:38:12;1.60;;;1.50;;
37097;SDS011;63608;49.572;12.348;2023-08-12T09:40:15;1.77;;;1.67;;
37097;SDS011;63608;49.572;12.348;2023-08-12T09:42:18;2.10;;;1.90;;
37097;SDS011;63608;49.572;12.348;2023-08-12T09:44:22;1.40;;;1.30;;
37097;SDS011;63608;49.572;12.348;2023-08-12T09:46:26;1.77;;;1.67;;
37097;SDS011;63608;49.572;12.348;2023-08-12T09:48:28;1.70;;;1.57;;
37097;SDS011;63608;49.572;12.348;2023-08-12T09:50:31;2.57;;;1.70;;
37097;SDS011;63608;49.572;12.348;2023-08-12T09:52:33;1.60;;;1.50;;
37097;SDS011;63608;49.572;12.348;2023-08-12T09:54:43;1.80;;;1.70;;
37097;SDS011;63608;49.572;12.348;2023-08-12T09:56:47;1.50;;;1.40;;
37097;SDS011;63608;49.572;12.348;2023-08-12T09:58:51;1.50;;;1.40;;
37097;SDS011;63608;49.572;12.348;2023-08-12T10:00:54;5.03;;;1.60;;
37097;SDS011;63608;49.572;12.348;2023-08-12T10:02:58;1.23;;;1.13;;
37097;SDS011;63608;49.572;12.348;2023-08-12T10:05:01;1.67;;;1.57;;
37097;SDS011;63608;49.572;12.348;2023-08-12T10:07:04;2.33;;;1.90;;
37097;SDS011;63608;49.572;12.348;2023-08-12T10:09:07;2.13;;;1.90;;
37097;SDS011;63608;49.572;12.348;2023-08-12T10:11:12;2.43;;;2.10;;
37097;SDS011;63608;49.572;12.348;2023-08-12T10:13:15;3.97;;;2.10;;
37097;SDS011;63608;49.572;12.348;2023-08-12T10:15:17;2.07;;;1.50;;
37097;SDS011;63608;49.572;12.348;2023-08-12T10:17:22;2.43;;;1.77;;
37097;SDS011;63608;49.572;12.348;2023-08-12T10:19:24;2.30;;;1.80;;
37097;SDS011;63608;49.572;12.348;2023-08-12T10:21:27;3.30;;;1.80;;
37097;SDS011;63608;49.572;12.348;2023-08-12T10:23:29;1.83;;;1.57;;
37097;SDS011;63608;49.572;12.348;2023-08-12T10:25:31;1.67;;;1.57;;
37097;SDS011;63608;49.572;12.348;2023-08-12T10:27:34;1.50;;;1.40;;
37097;SDS011;63608;49.572;12.348;2023-08-12T10:29:37;1.60;;;1.50;;
37097;SDS011;63608;49.572;12.348;2023-08-12T10:31:42;1.67;;;1.57;;
37097;SDS011;63608;49.572;12.348;2023-08-12T10:33:44;1.87;;;1.67;;
37097;SDS011;63608;49.572;12.348;2023-08-12T10:35:50;3.43;;;1.53;;
37097;SDS011;63608;49.572;12.348;2023-08-12T10:37:52;1.70;;;1.60;;
37097;SDS011;63608;49.572;12.348;2023-08-12T10:39:54;2.40;;;1.77;;
37097;SDS011;63608;49.572;12.348;2023-08-12T10:41:55;2.10;;;1.90;;
37097;SDS011;63608;49.572;12.348;2023-08-12T10:44:01;1.73;;;1.40;;
37097;SDS011;63608;49.572;12.348;2023-08-12T10:46:04;3.13;;;1.87;;
37097;SDS011;63608;49.572;12.348;2023-08-12T10:48:16;2.57;;;1.83;;
37097;SDS011;63608;49.572;12.348;2023-08-12T10:50:19;1.93;;;1.60;;
37097;SDS011;63608;49.572;12.348;2023-08-12T10:52:26;2.30;;;1.50;;
37097;SDS011;63608;49.572;12.348;2023-08-12T10:54:29;2.10;;;1.90;;
37097;SDS011;63608;49.572;12.348;2023-08-12T10:59:18;1.67;;;1.43;;
37097;SDS011;63608;49.572;12.348;2023-08-12T11:01:52;1.40;;;1.30;;
37097;SDS011;63608;49.572;12.348;2023-08-12T11:03:54;2.13;;;1.63;;
37097;SDS011;63608;49.572;12.348;2023-08-12T11:06:00;2.10;;;1.73;;
37097;SDS011;63608;49.572;12.348;2023-08-12T11:08:03;5.10;;;1.70;;
37097;SDS011;63608;49.572;12.348;2023-08-12T11:10:11;1.53;;;1.43;;
37097;SDS011;63608;49.572;12.348;2023-08-12T11:12:16;2.23;;;1.57;;
37097;SDS011;63608;49.572;12.348;2023-08-12T11:14:22;3.93;;;1.60;;
37097;SDS011;63608;49.572;12.348;2023-08-12T11:16:31;1.53;;;1.43;;
37097;SDS011;63608;49.572;12.348;2023-08-12T11:18:34;1.47;;;1.37;;
37097;SDS011;63608;49.572;12.348;2023-08-12T11:20:36;1.60;;;1.50;;
37097;SDS011;63608;49.572;12.348;2023-08-12T11:22:40;1.63;;;1.40;;
37097;SDS011;63608;49.572;12.348;2023-08-12T11:24:45;2.00;;;1.80;;
37097;SDS011;63608;49.572;12.348;2023-08-12T11:26:47;1.80;;;1.70;;
37097;SDS011;63608;49.572;12.348;2023-08-12T11:28:50;2.00;;;1.80;;
37097;SDS011;63608;49.572;12.348;2023-08-12T11:30:55;1.77;;;1.67;;
37097;SDS011;63608;49.572;12.348;2023-08-12T11:32:57;1.90;;;1.70;;
37097;SDS011;63608;49.572;12.348;2023-08-12T11:34:59;2.07;;;1.53;;
37097;SDS011;63608;49.572;12.348;2023-08-12T11:37:04;1.57;;;1.47;;
37097;SDS011;63608;49.572;12.348;2023-08-12T11:39:09;1.50;;;1.40;;
37097;SDS011;63608;49.572;12.348;2023-08-12T11:41:11;1.90;;;1.40;;
37097;SDS011;63608;49.572;12.348;2023-08-12T11:43:15;1.70;;;1.60;;
37097;SDS011;63608;49.572;12.348;2023-08-12T11:45:23;1.63;;;1.33;;
37097;SDS011;63608;49.572;12.348;2023-08-12T11:47:27;2.30;;;1.63;;
37097;SDS011;63608;49.572;12.348;2023-08-12T11:49:29;2.33;;;1.70;;
37097;SDS011;63608;49.572;12.348;2023-08-12T11:51:31;1.40;;;1.30;;
37097;SDS011;63608;49.572;12.348;2023-08-12T11:53:34;2.70;;;1.80;;
37097;SDS011;63608;49.572;12.348;2023-08-12T11:55:36;2.30;;;1.70;;
37097;SDS011;63608;49.572;12.348;2023-08-12T11:57:40;1.47;;;1.37;;
37097;SDS011;63608;49.572;12.348;2023-08-12T11:59:45;1.50;;;1.40;;
37097;SDS011;63608;49.572;12.348;2023-08-12T12:01:48;1.20;;;1.10;;
37097;SDS011;63608;49.572;12.348;2023-08-12T12:03:52;1.20;;;1.10;;
37097;SDS011;63608;49.572;12.348;2023-08-12T12:05:58;1.37;;;1.20;;
37097;SDS011;63608;49.572;12.348;2023-08-12T12:08:01;1.87;;;1.30;;
37097;SDS011;63608;49.572;12.348;2023-08-12T12:10:12;1.43;;;1.20;;
37097;SDS011;63608;49.572;12.348;2023-08-12T12:12:16;1.53;;;1.20;;
37097;SDS011;63608;49.572;12.348;2023-08-12T12:14:20;1.17;;;1.00;;
37097;SDS011;63608;49.572;12.348;2023-08-12T12:16:23;1.30;;;1.20;;
37097;SDS011;63608;49.572;12.348;2023-08-12T12:18:24;1.40;;;1.30;;